Bassano, Canada
Current Conditions -  °F | °C
As of 3:00 AM on Sunday 21 Dec 2014 (Local Time) from CYYC Reporting Station
Broken Clouds Broken Clouds  
Wind Chill: 20°   Ceiling: 13000
Heat Index: 27°   Visibility: 15mi
Dew Point: 21°   Wind: 6mph
Humidity: 80%   Direction: 330°NNW
Pressure: 29.19"   Gusts: NA
Location:  50.78°N, 112.47°W
Report Text: CYYC 211000Z 33005KT 220V330 15SM BKN130 M03/M06 A2919 RMK AC5 SLP923
Loading
Personal Weather Stations






























Interactive Weather Map New forecast layout! Learn more

10-Day Weather Forecast

Advertisements
Track Severe Weather on mobile